createdAt,value
2018-06-24T00:02:10.477Z,60.44
2018-06-24T00:04:38.913Z,60.30
2018-06-24T00:07:07.513Z,60.43
2018-06-24T00:09:36.238Z,60.65
2018-06-24T00:12:04.698Z,60.38
2018-06-24T00:14:33.174Z,60.44
2018-06-24T00:17:01.809Z,60.29
2018-06-24T00:19:30.493Z,60.00
2018-06-24T00:21:58.965Z,60.27
2018-06-24T00:24:27.521Z,60.23
2018-06-24T00:26:55.937Z,59.92
2018-06-24T00:29:24.422Z,60.29
2018-06-24T00:31:53.133Z,60.31
2018-06-24T00:34:21.621Z,60.03
2018-06-24T00:36:50.307Z,60.34
2018-06-24T00:39:18.885Z,60.16
2018-06-24T00:41:47.334Z,60.27
2018-06-24T00:44:16.065Z,60.36
2018-06-24T00:46:44.657Z,60.38
2018-06-24T00:49:13.089Z,60.38
2018-06-24T00:51:41.537Z,60.24
2018-06-24T00:54:10.558Z,60.52
2018-06-24T00:56:39.102Z,60.48
2018-06-24T00:59:07.697Z,60.61
2018-06-24T01:01:36.450Z,60.52
2018-06-24T01:04:04.894Z,60.89
2018-06-24T01:06:33.350Z,60.94
2018-06-24T01:09:01.995Z,60.72
2018-06-24T01:11:30.449Z,60.52
2018-06-24T01:13:58.917Z,61.07
2018-06-24T01:16:27.939Z,61.05
2018-06-24T01:18:56.369Z,60.91
2018-06-24T01:21:24.902Z,61.39
2018-06-24T01:23:53.429Z,61.61
2018-06-24T01:26:22.196Z,61.20
2018-06-24T01:28:51.033Z,61.70
2018-06-24T01:31:19.927Z,61.71
2018-06-24T01:33:48.377Z,61.86
2018-06-24T01:36:16.817Z,62.18
2018-06-24T01:38:45.488Z,62.21
2018-06-24T01:41:14.006Z,62.37
2018-06-24T01:43:42.441Z,62.75
2018-06-24T01:46:11.740Z,62.50
2018-06-24T01:48:40.161Z,62.62
2018-06-24T01:51:08.624Z,62.66
2018-06-24T01:53:37.484Z,63.30
2018-06-24T01:56:05.922Z,63.28
2018-06-24T01:58:34.369Z,63.66
2018-06-24T02:01:03.506Z,63.34
2018-06-24T02:03:31.950Z,63.58
2018-06-24T02:06:00.429Z,64.16
2018-06-24T02:08:29.281Z,63.83
2018-06-24T02:10:57.721Z,64.13
2018-06-24T02:13:26.205Z,64.21
2018-06-24T02:15:54.854Z,64.55
2018-06-24T02:18:23.269Z,64.31
2018-06-24T02:20:51.715Z,64.38
2018-06-24T02:23:20.225Z,64.83
2018-06-24T02:25:48.649Z,64.74
2018-06-24T02:28:17.101Z,65.01
2018-06-24T02:30:45.647Z,65.08
2018-06-24T02:33:14.270Z,65.10
2018-06-24T02:35:42.703Z,64.98
2018-06-24T02:38:11.121Z,65.41
2018-06-24T02:40:39.533Z,65.56
2018-06-24T02:43:07.997Z,65.50
2018-06-24T02:45:36.629Z,65.48
2018-06-24T02:48:08.625Z,65.62
2018-06-24T02:50:37.105Z,65.38
2018-06-24T02:53:05.529Z,65.57
2018-06-24T02:55:34.433Z,65.59
2018-06-24T02:58:03.637Z,65.38
2018-06-24T03:00:32.058Z,65.37
2018-06-24T03:03:00.849Z,65.40
2018-06-24T03:05:29.785Z,65.43
2018-06-24T03:07:58.229Z,65.76
2018-06-24T03:10:26.649Z,65.46
2018-06-24T03:12:55.101Z,65.66
2018-06-24T03:15:23.528Z,65.65
2018-06-24T03:17:52.005Z,65.70
2018-06-24T03:20:20.509Z,65.65
2018-06-24T03:22:48.932Z,65.90
2018-06-24T03:25:17.398Z,65.87
2018-06-24T03:27:46.097Z,65.85
2018-06-24T03:30:14.519Z,65.85
2018-06-24T03:32:43.242Z,65.64
2018-06-24T03:35:12.257Z,65.59
2018-06-24T03:37:40.677Z,65.27
2018-06-24T03:40:09.097Z,65.01
2018-06-24T03:42:37.617Z,64.96
2018-06-24T03:45:06.497Z,64.43
2018-06-24T03:47:34.921Z,65.08
2018-06-24T03:50:04.389Z,64.88
2018-06-24T03:52:33.320Z,64.74
2018-06-24T03:55:01.745Z,64.82
2018-06-24T03:57:30.269Z,64.87
2018-06-24T03:59:58.689Z,64.89
2018-06-24T04:02:27.123Z,64.55
2018-06-24T04:04:56.702Z,64.19
2018-06-24T04:07:25.241Z,64.02
2018-06-24T04:09:53.749Z,63.78
2018-06-24T04:12:22.269Z,64.16
2018-06-24T04:14:50.696Z,63.85
2018-06-24T04:17:19.221Z,63.43
2018-06-24T04:19:48.141Z,63.32
2018-06-24T04:22:16.590Z,63.01
2018-06-24T04:24:45.106Z,62.44
2018-06-24T04:27:13.833Z,62.21
2018-06-24T04:29:42.251Z,61.83
2018-06-24T04:32:10.677Z,61.93
2018-06-24T04:34:39.691Z,61.48
2018-06-24T04:37:08.121Z,61.46
2018-06-24T04:39:37.429Z,60.93
2018-06-24T04:42:06.925Z,60.67
2018-06-24T04:44:35.366Z,60.47
2018-06-24T04:47:03.819Z,59.88
2018-06-24T04:49:32.729Z,59.80
2018-06-24T04:52:01.504Z,59.70
2018-06-24T04:54:29.939Z,59.58
2018-06-24T04:56:58.633Z,58.98
2018-06-24T04:59:27.056Z,59.21
2018-06-24T05:01:55.485Z,58.58
2018-06-24T05:04:24.537Z,58.39
2018-06-24T05:06:53.077Z,58.29
2018-06-24T05:09:21.501Z,58.11
2018-06-24T05:11:50.033Z,57.49
2018-06-24T05:14:18.457Z,57.45
2018-06-24T05:16:46.888Z,57.21
2018-06-24T05:19:15.630Z,57.15
2018-06-24T05:21:44.045Z,56.59
2018-06-24T05:24:12.456Z,56.12
2018-06-24T05:26:41.173Z,55.42
2018-06-24T05:29:09.853Z,54.89
2018-06-24T05:31:38.288Z,54.40
2018-06-24T05:34:06.917Z,53.80
2018-06-24T05:36:35.342Z,53.75
2018-06-24T05:39:06.202Z,53.17
2018-06-24T05:41:35.047Z,53.16
2018-06-24T05:44:03.774Z,52.58
2018-06-24T05:46:32.657Z,52.05
2018-06-24T05:49:01.307Z,51.61
2018-06-24T05:51:29.881Z,51.84
2018-06-24T05:53:58.497Z,50.74
2018-06-24T05:56:26.937Z,50.63
2018-06-24T05:58:55.381Z,49.65
2018-06-24T06:01:24.018Z,49.59
2018-06-24T06:03:52.665Z,48.98
2018-06-24T06:06:21.085Z,48.50
2018-06-24T06:08:50.190Z,47.90
2018-06-24T06:11:18.958Z,47.97
2018-06-24T06:13:48.086Z,48.08
2018-06-24T06:16:16.712Z,47.92
2018-06-24T06:18:45.614Z,47.64
2018-06-24T06:21:14.109Z,47.68
2018-06-24T06:23:43.313Z,47.53
2018-06-24T06:26:11.971Z,48.04
2018-06-24T06:28:40.402Z,48.30
2018-06-24T06:31:08.942Z,48.18
2018-06-24T06:33:37.745Z,48.76
2018-06-24T06:36:06.377Z,48.48
2018-06-24T06:38:35.210Z,48.36
2018-06-24T06:41:04.661Z,48.29
2018-06-24T06:43:33.093Z,47.68
2018-06-24T06:46:01.622Z,47.35
2018-06-24T06:48:30.542Z,47.37
2018-06-24T06:50:59.525Z,47.19
2018-06-24T06:53:28.054Z,46.94
2018-06-24T06:55:57.235Z,47.08
2018-06-24T06:58:25.973Z,47.15
2018-06-24T07:00:54.499Z,47.23
2018-06-24T07:03:23.215Z,46.76
2018-06-24T07:05:51.720Z,46.56
2018-06-24T07:08:20.225Z,46.81
2018-06-24T07:10:49.161Z,47.27
2018-06-24T07:13:17.620Z,46.42
2018-06-24T07:15:46.187Z,46.00
2018-06-24T07:18:14.842Z,46.03
2018-06-24T07:20:43.294Z,46.50
2018-06-24T07:23:12.265Z,46.37
2018-06-24T07:25:40.854Z,45.44
2018-06-24T07:28:09.457Z,45.50
2018-06-24T07:30:39.742Z,45.05
2018-06-24T07:33:08.744Z,45.23
2018-06-24T07:35:37.153Z,44.71
2018-06-24T07:38:06.085Z,44.66
2018-06-24T07:40:34.916Z,44.58
2018-06-24T07:43:03.661Z,45.06
2018-06-24T07:45:32.125Z,44.62
2018-06-24T07:48:00.877Z,43.08
2018-06-24T07:50:29.307Z,41.80
2018-06-24T07:52:57.862Z,40.19
2018-06-24T07:55:26.510Z,39.63
2018-06-24T07:57:55.918Z,38.44
2018-06-24T08:00:24.426Z,37.89
2018-06-24T08:02:53.497Z,36.48
2018-06-24T08:05:22.101Z,35.57
2018-06-24T08:07:50.520Z,35.27
2018-06-24T08:10:19.222Z,35.30
2018-06-24T08:12:47.750Z,34.59
2018-06-24T08:15:16.393Z,34.22
2018-06-24T08:17:45.621Z,33.20
2018-06-24T08:20:14.042Z,32.68
2018-06-24T08:22:42.807Z,32.91
2018-06-24T08:25:11.385Z,32.48
2018-06-24T08:27:41.626Z,32.14
2018-06-24T08:30:10.358Z,32.02
2018-06-24T08:32:39.274Z,31.94
2018-06-24T08:35:07.807Z,30.94
2018-06-24T08:37:36.961Z,31.50
2018-06-24T08:40:05.990Z,31.63
2018-06-24T08:42:34.925Z,31.04
2018-06-24T08:45:03.493Z,30.33
2018-06-24T08:47:32.370Z,30.09
2018-06-24T08:50:00.789Z,31.36
2018-06-24T08:52:29.289Z,30.84
2018-06-24T08:54:57.831Z,29.52
2018-06-24T08:57:26.249Z,29.75
2018-06-24T08:59:55.172Z,30.08
2018-06-24T09:02:24.093Z,30.73
2018-06-24T09:04:53.048Z,31.53
2018-06-24T09:07:21.466Z,31.41
2018-06-24T09:09:50.124Z,31.30
2018-06-24T09:12:18.945Z,31.63
2018-06-24T09:14:47.735Z,31.23
2018-06-24T09:17:16.390Z,31.45
2018-06-24T09:19:45.356Z,31.97
2018-06-24T09:22:14.146Z,32.07
2018-06-24T09:24:42.874Z,33.84
2018-06-24T09:27:12.837Z,34.10
2018-06-24T09:29:41.250Z,33.50
2018-06-24T09:32:10.162Z,32.32
2018-06-24T09:34:39.153Z,32.26
2018-06-24T09:37:07.677Z,34.15
2018-06-24T09:39:36.821Z,32.92
2018-06-24T09:42:05.426Z,33.45
2018-06-24T09:44:34.845Z,33.80
2018-06-24T09:47:03.425Z,34.04
2018-06-24T09:49:32.227Z,34.02
2018-06-24T09:52:00.663Z,34.76
2018-06-24T09:54:29.198Z,34.69
2018-06-24T09:56:57.729Z,35.19
2018-06-24T09:59:26.201Z,34.91
2018-06-24T10:01:55.006Z,35.47
2018-06-24T10:04:23.778Z,35.01
2018-06-24T10:06:52.203Z,35.26
2018-06-24T10:09:20.828Z,34.58
2018-06-24T10:11:49.361Z,34.67
2018-06-24T10:14:17.802Z,34.67
2018-06-24T10:16:47.019Z,35.27
2018-06-24T10:19:15.529Z,35.83
2018-06-24T10:21:43.978Z,36.16
2018-06-24T10:24:12.641Z,35.96
2018-06-24T10:26:41.362Z,35.73
2018-06-24T10:29:09.812Z,35.86
2018-06-24T10:31:38.673Z,36.69
2018-06-24T10:34:07.404Z,36.37
2018-06-24T10:36:35.888Z,36.55
2018-06-24T10:39:07.063Z,36.57
2018-06-24T10:41:36.798Z,36.65
2018-06-24T10:44:05.349Z,36.58
2018-06-24T10:46:33.941Z,36.70
2018-06-24T10:49:02.560Z,37.02
2018-06-24T10:51:31.109Z,37.05
2018-06-24T10:53:59.974Z,37.01
2018-06-24T10:56:28.442Z,37.02
2018-06-24T10:58:56.993Z,36.83
2018-06-24T11:01:25.730Z,37.53
2018-06-24T11:03:54.781Z,38.03
2018-06-24T11:06:23.661Z,37.36
2018-06-24T11:08:53.344Z,36.64
2018-06-24T11:11:21.821Z,35.63
2018-06-24T11:13:50.606Z,36.00
2018-06-24T11:16:19.508Z,36.35
2018-06-24T11:18:48.146Z,36.79
2018-06-24T11:21:17.001Z,35.87
2018-06-24T11:23:46.004Z,36.21
2018-06-24T11:26:15.390Z,36.30
2018-06-24T11:28:43.982Z,35.90
2018-06-24T11:31:12.700Z,35.13
2018-06-24T11:33:41.649Z,35.06
2018-06-24T11:36:16.526Z,35.33
2018-06-24T11:38:45.603Z,35.86
2018-06-24T11:41:15.029Z,35.38
2018-06-24T11:43:44.895Z,36.35
2018-06-24T11:46:16.698Z,35.87
2018-06-24T11:48:47.466Z,36.55
2018-06-24T11:51:17.103Z,36.06
2018-06-24T11:53:46.208Z,36.24
2018-06-24T11:56:15.222Z,34.98
2018-06-24T11:58:46.631Z,35.26
2018-06-24T12:01:15.980Z,35.19
2018-06-24T12:03:45.874Z,34.08
2018-06-24T12:06:14.836Z,33.44
2018-06-24T12:08:44.155Z,33.12
2018-06-24T12:11:13.089Z,32.91
2018-06-24T12:13:41.811Z,32.51
2018-06-24T12:16:10.591Z,31.66
2018-06-24T12:18:39.115Z,32.03
2018-06-24T12:21:07.802Z,31.92
2018-06-24T12:23:36.727Z,31.75
2018-06-24T12:26:05.253Z,32.33
2018-06-24T12:28:33.990Z,32.44
2018-06-24T12:31:03.034Z,32.58
2018-06-24T12:33:31.513Z,32.87
2018-06-24T12:35:59.969Z,33.41
2018-06-24T12:38:28.581Z,32.57
2018-06-24T12:40:57.602Z,31.18
2018-06-24T12:43:26.147Z,30.99
2018-06-24T12:45:54.603Z,29.52
2018-06-24T12:48:23.066Z,29.04
2018-06-24T12:50:51.560Z,28.86
2018-06-24T12:53:26.753Z,28.24
2018-06-24T12:55:55.289Z,28.39
2018-06-24T12:58:24.164Z,28.86
2018-06-24T13:00:53.155Z,28.30
2018-06-24T13:03:21.028Z,29.82
2018-06-24T13:05:49.789Z,30.18
2018-06-24T13:08:18.570Z,31.11
2018-06-24T13:10:47.186Z,30.95
2018-06-24T13:13:15.764Z,31.70
2018-06-24T13:15:44.202Z,31.57
2018-06-24T13:18:12.694Z,32.01
2018-06-24T13:20:41.581Z,31.56
2018-06-24T13:23:10.165Z,31.75
2018-06-24T13:25:38.618Z,32.14
2018-06-24T13:28:07.060Z,32.44
2018-06-24T13:30:36.542Z,32.38
2018-06-24T13:33:05.022Z,31.59
2018-06-24T13:35:33.469Z,32.62
2018-06-24T13:38:01.919Z,32.95
2018-06-24T13:40:30.379Z,32.38
2018-06-24T13:42:59.097Z,33.31
2018-06-24T13:45:27.525Z,33.39
2018-06-24T13:47:56.037Z,33.59
2018-06-24T13:50:24.561Z,33.68
2018-06-24T13:52:52.998Z,34.55
2018-06-24T13:55:21.833Z,33.86
2018-06-24T13:57:50.256Z,32.46
2018-06-24T14:00:18.857Z,30.93
2018-06-24T14:02:47.358Z,30.57
2018-06-24T14:05:16.027Z,30.93
2018-06-24T14:07:44.566Z,30.62
2018-06-24T14:10:13.317Z,29.85
2018-06-24T14:12:42.082Z,29.77
2018-06-24T14:15:10.529Z,29.06
2018-06-24T14:17:39.038Z,27.90
2018-06-24T14:20:07.693Z,28.47
2018-06-24T14:22:36.399Z,28.58
2018-06-24T14:25:05.642Z,29.29
2018-06-24T14:27:34.250Z,30.37
2018-06-24T14:30:02.737Z,30.62
2018-06-24T14:32:31.203Z,30.91
2018-06-24T14:34:59.944Z,30.57
2018-06-24T14:37:28.802Z,30.80
2018-06-24T14:39:57.581Z,30.27
2018-06-24T14:42:26.325Z,30.14
2018-06-24T14:44:54.781Z,29.76
2018-06-24T14:47:23.245Z,30.97
2018-06-24T14:49:51.786Z,31.84
2018-06-24T14:52:20.310Z,31.89
2018-06-24T14:54:48.773Z,32.04
2018-06-24T14:57:17.299Z,32.40
2018-06-24T14:59:45.849Z,32.73
2018-06-24T15:02:14.323Z,32.69
2018-06-24T15:04:43.080Z,32.23
2018-06-24T15:07:11.843Z,29.77
2018-06-24T15:09:40.359Z,28.64
2018-06-24T15:12:09.294Z,28.06
2018-06-24T15:14:37.747Z,28.30
2018-06-24T15:17:06.274Z,28.53
2018-06-24T15:19:35.345Z,27.76
2018-06-24T15:22:04.285Z,26.64
2018-06-24T15:24:32.734Z,25.66
2018-06-24T15:27:01.483Z,24.63
2018-06-24T15:29:29.959Z,24.40
2018-06-24T15:31:58.437Z,24.26
2018-06-24T15:34:27.146Z,23.82
2018-06-24T15:36:56.025Z,24.29
2018-06-24T15:39:24.510Z,24.41
2018-06-24T15:41:53.195Z,24.97
2018-06-24T15:44:22.199Z,25.22
2018-06-24T15:46:50.649Z,25.89
2018-06-24T15:49:19.297Z,26.91
2018-06-24T15:51:48.230Z,26.30
2018-06-24T15:54:23.045Z,25.78
2018-06-24T15:56:51.668Z,25.01
2018-06-24T15:59:20.098Z,24.23
2018-06-24T16:01:48.561Z,24.69
2018-06-24T16:04:17.196Z,23.87
2018-06-24T16:06:45.634Z,23.87
2018-06-24T16:09:14.308Z,24.05
2018-06-24T16:11:43.909Z,24.28
2018-06-24T16:14:12.649Z,24.89
2018-06-24T16:16:41.196Z,25.41
2018-06-24T16:19:09.798Z,24.75
2018-06-24T16:21:38.226Z,23.89
2018-06-24T16:24:06.757Z,23.30
2018-06-24T16:26:35.479Z,23.27
2018-06-24T16:29:04.213Z,22.77
2018-06-24T16:31:32.701Z,23.70
2018-06-24T16:34:01.658Z,23.84
2018-06-24T16:36:30.111Z,23.08
2018-06-24T16:38:58.658Z,23.03
2018-06-24T16:41:27.297Z,22.52
2018-06-24T16:43:55.741Z,22.57
2018-06-24T16:46:24.197Z,22.13
2018-06-24T16:48:52.908Z,21.95
2018-06-24T16:51:21.345Z,22.17
2018-06-24T16:53:50.134Z,22.35
2018-06-24T16:56:19.280Z,22.69
2018-06-24T16:58:47.728Z,24.15
2018-06-24T17:01:16.217Z,24.00
2018-06-24T17:03:45.575Z,24.92
2018-06-24T17:06:14.014Z,26.35
2018-06-24T17:08:42.477Z,26.15
2018-06-24T17:11:11.507Z,27.03
2018-06-24T17:13:40.141Z,27.78
2018-06-24T17:16:08.801Z,28.54
2018-06-24T17:18:37.645Z,28.74
2018-06-24T17:21:07.041Z,29.02
2018-06-24T17:23:36.810Z,29.61
2018-06-24T17:26:05.861Z,29.76
2018-06-24T17:28:34.921Z,30.58
2018-06-24T17:31:05.966Z,30.87
2018-06-24T17:33:34.984Z,31.27
2018-06-24T17:36:03.426Z,32.12
2018-06-24T17:38:31.917Z,32.80
2018-06-24T17:41:00.739Z,32.96
2018-06-24T17:43:29.175Z,33.00
2018-06-24T17:45:57.864Z,33.09
2018-06-24T17:48:26.641Z,33.34
2018-06-24T17:50:55.105Z,33.44
2018-06-24T17:53:23.745Z,33.73
2018-06-24T17:55:52.386Z,34.10
2018-06-24T17:58:20.814Z,34.34
2018-06-24T18:00:49.326Z,34.60
2018-06-24T18:03:18.036Z,34.79
2018-06-24T18:05:46.681Z,34.83
2018-06-24T18:08:15.139Z,35.16
2018-06-24T18:10:43.738Z,35.58
2018-06-24T18:13:12.251Z,35.60
2018-06-24T18:15:40.709Z,35.45
2018-06-24T18:18:09.783Z,35.70
2018-06-24T18:20:38.347Z,35.76
2018-06-24T18:23:07.495Z,35.85
2018-06-24T18:25:36.782Z,35.84
2018-06-24T18:28:05.302Z,35.86
2018-06-24T18:30:33.874Z,35.88
2018-06-24T18:33:02.696Z,36.16
2018-06-24T18:35:31.115Z,36.24
2018-06-24T18:37:59.590Z,36.09
2018-06-24T18:40:28.276Z,35.87
2018-06-24T18:42:56.817Z,36.13
2018-06-24T18:45:25.355Z,36.48
2018-06-24T18:47:54.313Z,37.07
2018-06-24T18:50:22.753Z,37.18
2018-06-24T18:52:51.217Z,37.11
2018-06-24T18:55:19.857Z,37.30
2018-06-24T18:57:48.301Z,37.63
2018-06-24T19:00:16.756Z,37.82
2018-06-24T19:02:45.464Z,38.22
2018-06-24T19:05:14.041Z,38.37
2018-06-24T19:07:42.588Z,38.69
2018-06-24T19:10:11.561Z,39.02
2018-06-24T19:12:40.309Z,38.74
2018-06-24T19:15:08.851Z,38.81
2018-06-24T19:17:37.379Z,39.23
2018-06-24T19:20:06.599Z,39.69
2018-06-24T19:22:35.072Z,39.91
2018-06-24T19:25:03.530Z,39.51
2018-06-24T19:27:32.043Z,39.92
2018-06-24T19:30:00.521Z,40.01
2018-06-24T19:32:29.205Z,39.49
2018-06-24T19:34:58.377Z,40.05
2018-06-24T19:37:26.934Z,40.13
2018-06-24T19:39:55.503Z,40.58
2018-06-24T19:42:24.002Z,40.49
2018-06-24T19:44:52.492Z,40.91
2018-06-24T19:47:21.222Z,41.17
2018-06-24T19:49:50.029Z,41.29
2018-06-24T19:52:18.511Z,40.83
2018-06-24T19:54:46.942Z,40.98
2018-06-24T19:57:15.801Z,40.95
2018-06-24T19:59:44.489Z,41.68
2018-06-24T20:02:13.000Z,41.84
2018-06-24T20:04:41.584Z,41.83
2018-06-24T20:07:10.119Z,42.12
2018-06-24T20:09:38.554Z,42.41
2018-06-24T20:12:07.301Z,42.25
2018-06-24T20:14:35.973Z,42.74
2018-06-24T20:17:06.066Z,42.42
2018-06-24T20:19:34.657Z,42.74
2018-06-24T20:22:03.526Z,42.72
2018-06-24T20:24:31.954Z,43.10
2018-06-24T20:27:00.626Z,42.96
2018-06-24T20:29:29.205Z,43.57
2018-06-24T20:31:57.633Z,43.88
2018-06-24T20:34:32.724Z,44.05
2018-06-24T20:37:01.321Z,43.97
2018-06-24T20:39:29.858Z,44.28
2018-06-24T20:41:58.398Z,44.20
2018-06-24T20:44:26.954Z,44.50
2018-06-24T20:46:55.645Z,44.35
2018-06-24T20:49:24.117Z,44.82
2018-06-24T20:51:52.977Z,45.06
2018-06-24T20:54:21.482Z,44.67
2018-06-24T20:56:49.945Z,45.24
2018-06-24T20:59:18.489Z,45.38
2018-06-24T21:01:47.127Z,45.38
2018-06-24T21:04:15.657Z,45.75
2018-06-24T21:06:44.165Z,46.02
2018-06-24T21:09:12.993Z,46.21
2018-06-24T21:11:41.667Z,46.39
2018-06-24T21:14:10.446Z,46.28
2018-06-24T21:16:38.884Z,46.19
2018-06-24T21:19:07.338Z,45.86
2018-06-24T21:21:36.846Z,46.05
2018-06-24T21:24:05.477Z,46.45
2018-06-24T21:26:33.966Z,46.56
2018-06-24T21:29:02.759Z,46.45
2018-06-24T21:31:31.170Z,46.47
2018-06-24T21:33:59.604Z,46.42
2018-06-24T21:36:28.698Z,46.39
2018-06-24T21:38:57.617Z,47.01
2018-06-24T21:41:26.110Z,47.20
2018-06-24T21:43:54.963Z,47.24
2018-06-24T21:46:23.393Z,47.47
2018-06-24T21:48:51.970Z,47.13
2018-06-24T21:51:20.721Z,47.69
2018-06-24T21:53:49.166Z,47.23
2018-06-24T21:56:17.638Z,47.62
2018-06-24T21:58:46.469Z,47.32
2018-06-24T22:01:14.942Z,47.58
2018-06-24T22:03:43.485Z,47.66
2018-06-24T22:06:12.111Z,48.09
2018-06-24T22:08:40.530Z,47.80
2018-06-24T22:11:08.998Z,48.00
2018-06-24T22:13:37.965Z,48.27
2018-06-24T22:16:06.463Z,48.53
2018-06-24T22:18:35.519Z,48.34
2018-06-24T22:21:04.109Z,48.38
2018-06-24T22:23:32.538Z,48.23
2018-06-24T22:26:01.220Z,48.69
2018-06-24T22:28:29.994Z,49.22
2018-06-24T22:30:58.433Z,49.18
2018-06-24T22:33:26.889Z,49.07
2018-06-24T22:35:55.534Z,49.09
2018-06-24T22:38:23.969Z,49.55
2018-06-24T22:40:52.501Z,49.36
2018-06-24T22:43:22.381Z,49.99
2018-06-24T22:45:51.677Z,50.04
2018-06-24T22:48:20.229Z,50.27
2018-06-24T22:50:48.857Z,50.18
2018-06-24T22:53:17.465Z,50.50
2018-06-24T22:55:45.980Z,50.76
2018-06-24T22:58:14.511Z,50.84
2018-06-24T23:00:43.074Z,50.99
2018-06-24T23:03:11.545Z,51.38
2018-06-24T23:05:40.158Z,51.50
2018-06-24T23:08:08.855Z,51.62
2018-06-24T23:10:37.305Z,51.71
2018-06-24T23:13:06.465Z,51.60
2018-06-24T23:15:34.994Z,52.11
2018-06-24T23:18:03.462Z,52.17
2018-06-24T23:20:32.157Z,52.48
2018-06-24T23:23:00.968Z,52.57
2018-06-24T23:25:29.597Z,52.74
2018-06-24T23:27:58.265Z,52.91
2018-06-24T23:30:27.014Z,52.83
2018-06-24T23:32:56.250Z,53.19
2018-06-24T23:35:24.889Z,53.46
2018-06-24T23:37:53.438Z,53.17
2018-06-24T23:40:21.950Z,53.21
2018-06-24T23:42:50.554Z,53.57
2018-06-24T23:45:19.483Z,53.75
2018-06-24T23:47:47.929Z,53.96
2018-06-24T23:50:16.518Z,53.87
2018-06-24T23:52:45.886Z,54.18
2018-06-24T23:55:14.379Z,54.47
2018-06-24T23:57:42.902Z,54.17
